createdAt,value
2022-07-26T00:00:22.601Z,12.90
2022-07-26T00:02:54.675Z,12.50
2022-07-26T00:05:23.399Z,13.23
2022-07-26T00:08:10.699Z,13.13
2022-07-26T00:10:42.462Z,13.27
2022-07-26T00:13:12.476Z,13.13
2022-07-26T00:15:41.233Z,12.77
2022-07-26T00:18:12.641Z,12.67
2022-07-26T00:20:42.268Z,12.73
2022-07-26T00:23:11.682Z,13.53
2022-07-26T00:25:40.731Z,13.47
2022-07-26T00:28:13.367Z,12.93
2022-07-26T00:30:42.430Z,13.23
2022-07-26T00:33:13.451Z,13.03
2022-07-26T00:35:42.421Z,12.80
2022-07-26T00:38:11.315Z,12.53
2022-07-26T00:40:39.904Z,14.00
2022-07-26T00:43:09.383Z,12.47
2022-07-26T00:45:37.947Z,13.87
2022-07-26T00:48:07.978Z,13.57
2022-07-26T00:50:38.055Z,13.33
2022-07-26T00:53:07.453Z,13.30
2022-07-26T00:55:36.177Z,14.17
2022-07-26T00:58:06.508Z,13.43
2022-07-26T01:00:35.158Z,12.33
2022-07-26T01:03:04.046Z,13.33
2022-07-26T01:05:34.079Z,14.03
2022-07-26T01:08:04.302Z,12.83
2022-07-26T01:10:33.144Z,14.00
2022-07-26T01:13:02.038Z,13.53
2022-07-26T01:15:30.562Z,14.03
2022-07-26T01:17:59.046Z,13.07
2022-07-26T01:20:27.636Z,13.17
2022-07-26T01:22:57.586Z,14.67
2022-07-26T01:25:43.526Z,13.20
2022-07-26T01:28:19.649Z,13.43
2022-07-26T01:31:14.259Z,14.43
2022-07-26T01:33:43.208Z,14.73
2022-07-26T01:36:12.474Z,14.53
2022-07-26T01:39:02.767Z,13.67
2022-07-26T01:41:38.349Z,13.90
2022-07-26T01:44:08.564Z,14.23
2022-07-26T01:46:37.969Z,13.83
2022-07-26T01:49:09.224Z,14.23
2022-07-26T01:51:38.128Z,13.70
2022-07-26T01:54:10.827Z,14.53
2022-07-26T01:56:39.703Z,14.60
2022-07-26T01:59:34.387Z,12.77
2022-07-26T02:02:04.089Z,13.63
2022-07-26T02:04:51.067Z,13.80
2022-07-26T02:07:20.070Z,14.13
2022-07-26T02:09:50.180Z,13.80
2022-07-26T02:12:18.778Z,13.63
2022-07-26T02:14:47.304Z,14.60
2022-07-26T02:17:16.077Z,13.97
2022-07-26T02:19:45.079Z,14.33
2022-07-26T02:22:13.825Z,13.20
2022-07-26T02:24:42.482Z,13.27
2022-07-26T02:27:12.397Z,13.27
2022-07-26T02:29:41.087Z,13.93
2022-07-26T02:32:11.118Z,13.57
2022-07-26T02:34:39.700Z,15.43
2022-07-26T02:37:08.649Z,14.40
2022-07-26T02:39:37.387Z,14.63
2022-07-26T02:42:06.188Z,13.87
2022-07-26T02:44:57.692Z,14.13
2022-07-26T02:47:26.273Z,14.80
2022-07-26T02:49:54.784Z,13.67
2022-07-26T02:52:23.324Z,14.23
2022-07-26T02:54:51.953Z,14.53
2022-07-26T02:57:20.490Z,14.43
2022-07-26T02:59:48.998Z,14.77
2022-07-26T03:02:18.904Z,14.17
2022-07-26T03:04:47.388Z,14.07
2022-07-26T03:07:15.882Z,13.90
2022-07-26T03:09:44.478Z,14.43
2022-07-26T03:12:13.137Z,14.10
2022-07-26T03:14:41.596Z,15.03
2022-07-26T03:17:10.170Z,14.30
2022-07-26T03:19:49.288Z,13.37
2022-07-26T03:22:18.033Z,13.73
2022-07-26T03:24:46.557Z,14.13
2022-07-26T03:27:15.646Z,14.93
2022-07-26T03:29:44.210Z,15.57
2022-07-26T03:32:13.143Z,14.80
2022-07-26T03:34:43.806Z,14.17
2022-07-26T03:37:12.419Z,13.97
2022-07-26T03:40:16.176Z,13.87
2022-07-26T03:42:45.314Z,13.63
2022-07-26T03:45:44.637Z,14.50
2022-07-26T03:48:13.274Z,13.70
2022-07-26T03:50:43.389Z,14.60
2022-07-26T03:53:12.102Z,14.83
2022-07-26T03:55:58.421Z,14.23
2022-07-26T03:58:26.954Z,14.03
2022-07-26T04:00:55.718Z,13.70
2022-07-26T04:03:25.424Z,14.13
2022-07-26T04:05:56.085Z,14.90
2022-07-26T04:08:24.714Z,13.53
2022-07-26T04:10:53.367Z,13.43
2022-07-26T04:13:24.007Z,14.47
2022-07-26T04:15:52.718Z,14.23
2022-07-26T04:18:21.802Z,14.20
2022-07-26T04:20:54.693Z,14.00
2022-07-26T04:23:23.433Z,14.27
2022-07-26T04:25:52.129Z,13.17
2022-07-26T04:28:20.937Z,14.17
2022-07-26T04:30:49.537Z,14.70
2022-07-26T04:33:18.475Z,14.33
2022-07-26T04:35:47.263Z,13.87
2022-07-26T04:38:17.791Z,13.70
2022-07-26T04:40:46.523Z,13.60
2022-07-26T04:43:16.198Z,14.80
2022-07-26T04:45:46.142Z,14.10
2022-07-26T04:48:15.725Z,14.03
2022-07-26T04:50:45.676Z,13.70
2022-07-26T04:53:16.234Z,13.90
2022-07-26T04:55:45.140Z,14.07
2022-07-26T04:58:14.041Z,14.43
2022-07-26T05:01:08.506Z,14.03
2022-07-26T05:03:31.397Z,13.87
2022-07-26T05:05:59.969Z,13.80
2022-07-26T05:08:30.012Z,12.43
2022-07-26T05:10:58.534Z,12.83
2022-07-26T05:13:30.725Z,14.20
2022-07-26T05:16:01.650Z,13.93
2022-07-26T05:18:45.558Z,13.23
2022-07-26T05:21:17.798Z,13.93
2022-07-26T05:23:48.142Z,11.97
2022-07-26T05:26:16.875Z,12.87
2022-07-26T05:28:45.524Z,13.40
2022-07-26T05:31:14.126Z,12.47
2022-07-26T05:33:42.896Z,12.03
2022-07-26T05:36:11.708Z,11.97
2022-07-26T05:38:40.508Z,12.67
2022-07-26T05:41:10.852Z,13.17
2022-07-26T05:43:41.610Z,12.70
2022-07-26T05:46:12.593Z,14.43
2022-07-26T05:48:41.818Z,12.97
2022-07-26T05:51:10.801Z,13.33
2022-07-26T05:53:40.109Z,13.37
2022-07-26T05:56:10.379Z,13.30
2022-07-26T05:58:38.997Z,14.60
2022-07-26T06:01:07.863Z,13.27
2022-07-26T06:03:36.509Z,13.27
2022-07-26T06:06:05.269Z,15.30
2022-07-26T06:08:34.530Z,13.50
2022-07-26T06:11:03.189Z,13.23
2022-07-26T06:13:33.083Z,12.87
2022-07-26T06:16:02.879Z,16.23
2022-07-26T06:18:31.409Z,13.20
2022-07-26T06:21:02.439Z,14.93
2022-07-26T06:23:56.225Z,14.13
2022-07-26T06:26:25.269Z,15.90
2022-07-26T06:28:55.495Z,15.90
2022-07-26T06:31:24.435Z,14.40
2022-07-26T06:33:53.136Z,14.53
2022-07-26T06:36:22.948Z,15.43
2022-07-26T06:38:55.016Z,13.23
2022-07-26T06:41:23.534Z,14.17
2022-07-26T06:43:51.992Z,15.10
2022-07-26T06:46:22.838Z,14.60
2022-07-26T06:48:53.032Z,14.43
2022-07-26T06:51:25.602Z,14.43
2022-07-26T06:53:54.211Z,14.40
2022-07-26T06:56:22.693Z,16.00
2022-07-26T06:58:55.284Z,15.30
2022-07-26T07:01:58.272Z,14.77
2022-07-26T07:04:13.739Z,14.20
2022-07-26T07:06:42.546Z,16.90
2022-07-26T07:09:13.569Z,15.50
2022-07-26T07:11:44.902Z,14.70
2022-07-26T07:14:13.689Z,15.10
2022-07-26T07:16:43.655Z,16.13
2022-07-26T07:19:25.059Z,14.87
2022-07-26T07:21:53.903Z,15.77
2022-07-26T07:24:23.539Z,14.00
2022-07-26T07:26:52.220Z,15.37
2022-07-26T07:29:21.288Z,13.90
2022-07-26T07:31:51.709Z,14.80
2022-07-26T07:34:37.016Z,14.97
2022-07-26T07:37:05.784Z,14.27
2022-07-26T07:39:42.154Z,15.10
2022-07-26T07:42:15.730Z,15.07
2022-07-26T07:44:45.027Z,15.73
2022-07-26T07:47:15.512Z,16.10
2022-07-26T07:49:44.362Z,14.30
2022-07-26T07:52:12.862Z,15.20
2022-07-26T07:54:42.224Z,14.93
2022-07-26T07:57:11.477Z,15.60
2022-07-26T07:59:42.783Z,15.40
2022-07-26T08:02:12.846Z,14.73
2022-07-26T08:04:42.945Z,14.60
2022-07-26T08:07:13.592Z,15.23
2022-07-26T08:09:43.390Z,14.40
2022-07-26T08:12:12.391Z,13.63
2022-07-26T08:14:41.579Z,14.60
2022-07-26T08:17:10.319Z,14.25
2022-07-26T08:19:41.981Z,13.85
2022-07-26T08:22:12.710Z,15.10
2022-07-26T08:24:41.955Z,14.43
2022-07-26T08:27:10.469Z,14.27
2022-07-26T08:29:39.042Z,13.77
2022-07-26T08:32:32.762Z,13.60
2022-07-26T08:35:16.806Z,13.05
2022-07-26T08:37:47.974Z,14.82
2022-07-26T08:40:16.703Z,13.50
2022-07-26T08:42:52.745Z,13.82
2022-07-26T08:45:25.021Z,14.07
2022-07-26T08:48:16.667Z,14.48
2022-07-26T08:50:43.332Z,12.55
2022-07-26T08:53:14.411Z,13.32
2022-07-26T08:56:06.534Z,14.38
2022-07-26T08:58:36.319Z,13.85
2022-07-26T09:01:12.865Z,13.13
2022-07-26T09:03:43.142Z,13.80
2022-07-26T09:06:17.778Z,12.32
2022-07-26T09:08:50.005Z,13.18
2022-07-26T09:11:33.492Z,13.07
2022-07-26T09:14:04.545Z,13.68
2022-07-26T09:16:39.186Z,13.20
2022-07-26T09:19:19.317Z,12.75
2022-07-26T09:21:47.928Z,13.50
2022-07-26T09:24:33.440Z,13.35
2022-07-26T09:27:04.237Z,13.38
2022-07-26T09:29:43.834Z,13.20
2022-07-26T09:32:18.378Z,12.85
2022-07-26T09:34:53.733Z,12.85
2022-07-26T09:37:36.623Z,13.02
2022-07-26T09:40:10.048Z,13.32
2022-07-26T09:42:39.646Z,13.90
2022-07-26T09:45:18.586Z,12.63
2022-07-26T09:47:47.131Z,13.00
2022-07-26T09:50:18.870Z,12.32
2022-07-26T09:53:08.575Z,12.52
2022-07-26T09:55:56.950Z,11.80
2022-07-26T09:58:26.665Z,12.23
2022-07-26T10:01:00.460Z,11.68
2022-07-26T10:03:32.158Z,11.95
2022-07-26T10:06:02.356Z,11.40
2022-07-26T10:08:32.504Z,13.07
2022-07-26T10:11:09.429Z,11.65
2022-07-26T10:13:38.780Z,13.13
2022-07-26T10:16:08.078Z,11.45
2022-07-26T10:18:47.465Z,11.65
2022-07-26T10:21:27.722Z,11.95
2022-07-26T10:23:58.819Z,11.07
2022-07-26T10:26:45.521Z,10.88
2022-07-26T10:29:29.503Z,10.93
2022-07-26T10:32:20.345Z,11.05
2022-07-26T10:34:49.574Z,11.18
2022-07-26T10:37:29.751Z,11.95
2022-07-26T10:40:25.687Z,11.10
2022-07-26T10:43:39.700Z,10.85
2022-07-26T10:46:25.128Z,10.57
2022-07-26T10:48:58.489Z,11.10
2022-07-26T10:51:29.647Z,11.63
2022-07-26T10:54:02.715Z,11.43
2022-07-26T10:56:33.601Z,10.15
2022-07-26T10:59:04.499Z,10.25
2022-07-26T11:01:40.795Z,11.70
2022-07-26T11:04:20.543Z,11.27
2022-07-26T11:06:50.044Z,10.70
2022-07-26T11:09:21.046Z,11.63
2022-07-26T11:11:52.516Z,11.15
2022-07-26T11:14:22.551Z,9.85
2022-07-26T11:16:51.893Z,9.02
2022-07-26T11:19:22.348Z,9.25
2022-07-26T11:21:57.177Z,9.05
2022-07-26T11:24:26.856Z,9.48
2022-07-26T11:26:56.636Z,9.30
2022-07-26T11:29:38.216Z,9.07
2022-07-26T11:32:18.540Z,9.18
2022-07-26T11:34:48.817Z,8.63
2022-07-26T11:37:17.366Z,9.20
2022-07-26T11:39:48.125Z,8.40
2022-07-26T11:42:19.749Z,8.82
2022-07-26T11:44:51.342Z,8.35
2022-07-26T11:47:24.184Z,8.98
2022-07-26T11:52:44.465Z,7.95
2022-07-26T11:55:12.994Z,7.68
2022-07-26T11:57:41.813Z,8.43
2022-07-26T12:00:14.400Z,8.77
2022-07-26T12:02:43.193Z,8.73
2022-07-26T12:05:18.696Z,7.90
2022-07-26T12:08:03.025Z,8.80
2022-07-26T12:10:31.931Z,8.65
2022-07-26T12:13:12.759Z,8.50
2022-07-26T12:16:07.964Z,7.45
2022-07-26T12:18:36.726Z,8.18
2022-07-26T12:21:09.330Z,8.40
2022-07-26T12:23:48.164Z,8.52
2022-07-26T12:26:22.684Z,9.18
2022-07-26T12:28:51.355Z,8.13
2022-07-26T12:31:30.462Z,8.90
2022-07-26T12:34:00.015Z,8.63
2022-07-26T12:36:30.169Z,9.65
2022-07-26T12:39:01.170Z,8.13
2022-07-26T12:41:38.384Z,7.93
2022-07-26T12:44:08.554Z,7.95
2022-07-26T12:46:39.075Z,8.65
2022-07-26T12:49:07.665Z,8.23
2022-07-26T12:51:41.380Z,7.90
2022-07-26T12:54:10.546Z,7.40
2022-07-26T12:56:39.251Z,7.70
2022-07-26T12:59:07.926Z,7.82
2022-07-26T13:01:36.684Z,8.23
2022-07-26T13:04:06.911Z,8.38
2022-07-26T13:06:35.526Z,8.63
2022-07-26T13:09:04.082Z,8.43
2022-07-26T13:11:33.554Z,9.13
2022-07-26T13:14:02.579Z,9.00
2022-07-26T13:16:31.089Z,9.32
2022-07-26T13:18:59.692Z,9.50
2022-07-26T13:21:33.556Z,9.20
2022-07-26T13:24:02.725Z,8.25
2022-07-26T13:26:31.214Z,8.57
2022-07-26T13:28:59.892Z,8.60
2022-07-26T13:31:28.615Z,8.10
2022-07-26T13:33:57.159Z,9.00
2022-07-26T13:36:25.719Z,8.43
2022-07-26T13:38:55.931Z,9.18
2022-07-26T13:41:24.575Z,8.40
2022-07-26T13:43:54.141Z,8.57
2022-07-26T13:46:23.933Z,9.77
2022-07-26T13:49:00.456Z,8.80
2022-07-26T13:51:49.761Z,8.88
2022-07-26T13:54:22.079Z,8.70
2022-07-26T13:56:51.383Z,8.48
2022-07-26T13:59:20.573Z,8.65
2022-07-26T14:01:49.146Z,8.43
2022-07-26T14:04:18.086Z,8.45
2022-07-26T14:06:46.866Z,8.75
2022-07-26T14:09:16.530Z,8.70
2022-07-26T14:11:46.905Z,8.20
2022-07-26T14:14:15.828Z,8.88
2022-07-26T14:16:48.043Z,8.13
2022-07-26T14:19:18.099Z,8.20
2022-07-26T14:21:58.863Z,8.60
2022-07-26T14:24:29.252Z,8.63
2022-07-26T14:27:00.243Z,8.77
2022-07-26T14:29:31.576Z,8.52
2022-07-26T14:32:21.339Z,8.68
2022-07-26T14:34:50.904Z,8.50
2022-07-26T14:37:44.192Z,8.50
2022-07-26T14:40:09.916Z,8.10
2022-07-26T14:42:39.880Z,8.45
2022-07-26T14:45:11.291Z,7.95
2022-07-26T14:47:40.083Z,8.25
2022-07-26T14:50:53.034Z,8.05
2022-07-26T14:53:22.593Z,8.68
2022-07-26T14:55:51.124Z,8.40
2022-07-26T14:58:21.156Z,8.70
2022-07-26T15:00:52.124Z,8.60
2022-07-26T15:03:20.707Z,8.20
2022-07-26T15:05:49.226Z,8.55
2022-07-26T15:08:17.731Z,8.25
2022-07-26T15:10:46.415Z,8.98
2022-07-26T15:13:17.330Z,8.65
2022-07-26T15:15:47.587Z,8.32
2022-07-26T15:18:16.036Z,8.20
2022-07-26T15:20:44.674Z,8.43
2022-07-26T15:23:35.672Z,9.07
2022-07-26T15:26:04.316Z,9.15
2022-07-26T15:28:35.283Z,8.77
2022-07-26T15:31:05.290Z,8.45
2022-07-26T15:33:35.373Z,9.18
2022-07-26T15:36:06.107Z,8.88
2022-07-26T15:38:34.757Z,9.27
2022-07-26T15:41:03.337Z,8.30
2022-07-26T15:43:48.120Z,8.85
2022-07-26T15:46:31.077Z,8.35
2022-07-26T15:49:00.258Z,8.90
2022-07-26T15:51:29.123Z,9.10
2022-07-26T15:53:57.683Z,8.90
2022-07-26T15:56:26.193Z,8.60
2022-07-26T15:58:54.717Z,8.10
2022-07-26T16:01:23.500Z,7.90
2022-07-26T16:03:53.416Z,8.88
2022-07-26T16:06:23.140Z,8.13
2022-07-26T16:09:15.313Z,8.60
2022-07-26T16:11:40.204Z,8.30
2022-07-26T16:14:09.735Z,8.85
2022-07-26T16:16:38.362Z,8.18
2022-07-26T16:19:08.619Z,8.27
2022-07-26T16:21:37.912Z,8.55
2022-07-26T16:24:07.810Z,8.52
2022-07-26T16:26:36.961Z,8.32
2022-07-26T16:29:06.054Z,8.85
2022-07-26T16:31:34.855Z,8.38
2022-07-26T16:34:03.695Z,8.23
2022-07-26T16:36:34.310Z,8.70
2022-07-26T16:39:02.922Z,9.13
2022-07-26T16:41:32.010Z,8.98
2022-07-26T16:44:00.600Z,9.20
2022-07-26T16:46:29.188Z,9.73
2022-07-26T16:48:57.809Z,9.25
2022-07-26T16:51:27.189Z,10.32
2022-07-26T16:53:57.085Z,11.57
2022-07-26T16:56:25.613Z,10.88
2022-07-26T16:58:54.173Z,10.00
2022-07-26T17:01:22.753Z,9.38
2022-07-26T17:03:51.425Z,9.85
2022-07-26T17:06:20.092Z,10.27
2022-07-26T17:08:48.609Z,9.57
2022-07-26T17:11:18.529Z,9.43
2022-07-26T17:13:47.083Z,9.55
2022-07-26T17:16:15.712Z,10.23
2022-07-26T17:18:53.474Z,10.00
2022-07-26T17:21:22.236Z,9.48
2022-07-26T17:23:51.505Z,9.73
2022-07-26T17:26:22.096Z,10.02
2022-07-26T17:28:50.577Z,9.77
2022-07-26T17:31:19.164Z,11.00
2022-07-26T17:33:47.753Z,10.30
2022-07-26T17:36:43.018Z,10.25
2022-07-26T17:39:14.916Z,10.15
2022-07-26T17:41:49.562Z,10.63
2022-07-26T17:44:18.279Z,10.35
2022-07-26T17:46:46.793Z,10.25
2022-07-26T17:49:16.105Z,10.30
2022-07-26T17:51:45.959Z,10.30
2022-07-26T17:54:14.459Z,9.82
2022-07-26T17:56:42.937Z,10.73
2022-07-26T17:59:14.233Z,10.85
2022-07-26T18:01:53.828Z,9.80
2022-07-26T18:04:56.901Z,10.40
2022-07-26T18:07:25.678Z,10.80
2022-07-26T18:09:57.795Z,10.77
2022-07-26T18:12:26.362Z,10.80
2022-07-26T18:15:01.230Z,10.07
2022-07-26T18:17:29.709Z,10.43
2022-07-26T18:19:58.200Z,10.27
2022-07-26T18:22:27.330Z,10.73
2022-07-26T18:24:55.870Z,10.50
2022-07-26T18:27:28.186Z,10.70
2022-07-26T18:29:57.831Z,10.77
2022-07-26T18:32:28.262Z,11.00
2022-07-26T18:34:56.839Z,10.23
2022-07-26T18:37:25.701Z,10.17
2022-07-26T18:39:57.776Z,9.90
2022-07-26T18:42:27.466Z,10.87
2022-07-26T18:44:56.022Z,10.00
2022-07-26T18:47:24.774Z,10.00
2022-07-26T18:49:54.795Z,10.43
2022-07-26T18:52:28.576Z,10.47
2022-07-26T18:55:07.259Z,10.47
2022-07-26T18:57:36.647Z,9.80
2022-07-26T19:00:08.067Z,9.93
2022-07-26T19:02:36.737Z,10.70
2022-07-26T19:05:07.762Z,10.27
2022-07-26T19:07:37.600Z,9.30
2022-07-26T19:10:08.373Z,9.77
2022-07-26T19:12:58.698Z,9.80
2022-07-26T19:15:27.519Z,9.37
2022-07-26T19:17:56.081Z,9.97
2022-07-26T19:20:26.034Z,10.30
2022-07-26T19:22:54.611Z,9.87
2022-07-26T19:25:23.154Z,10.20
2022-07-26T19:27:51.849Z,9.73
2022-07-26T19:30:20.303Z,9.23
2022-07-26T19:32:48.957Z,9.30
2022-07-26T19:35:17.492Z,8.80
2022-07-26T19:37:47.661Z,9.60
2022-07-26T19:40:16.425Z,9.33
2022-07-26T19:42:45.070Z,8.87
2022-07-26T19:45:14.136Z,9.37
2022-07-26T19:47:42.805Z,8.87
2022-07-26T19:50:12.050Z,9.53
2022-07-26T19:52:41.305Z,8.73
2022-07-26T19:55:11.657Z,8.67
2022-07-26T19:57:40.456Z,8.90
2022-07-26T20:00:12.253Z,9.30
2022-07-26T20:02:41.647Z,8.30
2022-07-26T20:05:11.778Z,8.10
2022-07-26T20:07:40.589Z,9.20
2022-07-26T20:10:11.155Z,8.97
2022-07-26T20:12:39.705Z,8.40
2022-07-26T20:15:09.610Z,8.80
2022-07-26T20:17:39.829Z,9.13
2022-07-26T20:20:12.030Z,8.77
2022-07-26T20:22:40.508Z,9.03
2022-07-26T20:25:11.203Z,9.10
2022-07-26T20:27:40.022Z,9.10
2022-07-26T20:30:10.664Z,9.07
2022-07-26T20:32:39.169Z,8.90
2022-07-26T20:35:08.789Z,9.13
2022-07-26T20:37:37.683Z,8.87
2022-07-26T20:40:09.312Z,9.43
2022-07-26T20:42:40.412Z,9.27
2022-07-26T20:45:13.000Z,9.17
2022-07-26T20:47:43.067Z,9.27
2022-07-26T20:50:13.202Z,9.43
2022-07-26T20:52:42.011Z,9.23
2022-07-26T20:55:12.197Z,8.80
2022-07-26T20:57:42.612Z,9.70
2022-07-26T21:00:12.989Z,9.20
2022-07-26T21:02:41.826Z,9.13
2022-07-26T21:05:12.014Z,9.10
2022-07-26T21:07:58.638Z,9.77
2022-07-26T21:10:29.142Z,9.57
2022-07-26T21:13:00.941Z,9.80
2022-07-26T21:15:29.779Z,9.60
2022-07-26T21:17:58.681Z,10.20
2022-07-26T21:20:27.300Z,10.40
2022-07-26T21:23:08.140Z,10.27
2022-07-26T21:25:44.540Z,10.10
2022-07-26T21:28:25.333Z,10.17
2022-07-26T21:30:54.212Z,10.50
2022-07-26T21:33:22.796Z,10.90
2022-07-26T21:35:51.318Z,10.30
2022-07-26T21:38:20.109Z,10.67
2022-07-26T21:40:48.757Z,10.30
2022-07-26T21:43:17.342Z,10.70
2022-07-26T21:45:47.265Z,10.43
2022-07-26T21:48:15.786Z,11.47
2022-07-26T21:50:46.518Z,11.10
2022-07-26T21:53:15.197Z,10.90
2022-07-26T21:55:44.087Z,11.40
2022-07-26T21:58:12.730Z,11.30
2022-07-26T22:00:41.379Z,11.27
2022-07-26T22:03:11.872Z,11.70
2022-07-26T22:05:42.614Z,11.07
2022-07-26T22:08:20.310Z,11.93
2022-07-26T22:10:49.152Z,11.10
2022-07-26T22:13:17.969Z,12.40
2022-07-26T22:15:47.846Z,11.73
2022-07-26T22:18:19.708Z,11.77
2022-07-26T22:20:49.846Z,12.77
2022-07-26T22:23:19.822Z,11.70
2022-07-26T22:25:48.296Z,11.83
2022-07-26T22:28:18.456Z,11.07
2022-07-26T22:30:47.739Z,11.63
2022-07-26T22:33:18.571Z,11.23
2022-07-26T22:35:47.324Z,11.47
2022-07-26T22:38:41.195Z,12.10
2022-07-26T22:41:09.786Z,11.67
2022-07-26T22:43:38.377Z,11.47
2022-07-26T22:46:06.930Z,12.23
2022-07-26T22:48:38.694Z,12.03
2022-07-26T22:51:07.908Z,12.40
2022-07-26T22:53:36.525Z,11.47
2022-07-26T22:56:05.301Z,11.73
2022-07-26T22:59:22.690Z,12.77
2022-07-26T23:01:51.248Z,11.37
2022-07-26T23:04:21.198Z,12.30
2022-07-26T23:06:49.940Z,11.63
2022-07-26T23:09:18.466Z,11.80
2022-07-26T23:11:47.173Z,11.40
2022-07-26T23:14:15.667Z,11.33
2022-07-26T23:16:44.344Z,11.80
2022-07-26T23:19:13.269Z,11.20
2022-07-26T23:21:43.622Z,11.57
2022-07-26T23:24:15.981Z,11.07
2022-07-26T23:26:44.628Z,11.37
2022-07-26T23:29:13.589Z,11.30
2022-07-26T23:31:43.469Z,10.73
2022-07-26T23:34:12.183Z,10.97
2022-07-26T23:36:42.340Z,10.23
2022-07-26T23:39:11.289Z,10.90
2022-07-26T23:41:40.647Z,11.07
2022-07-26T23:44:09.133Z,11.37
2022-07-26T23:46:37.932Z,11.13
2022-07-26T23:49:06.705Z,11.07
2022-07-26T23:51:35.383Z,11.53
2022-07-26T23:54:05.771Z,10.83
2022-07-26T23:56:34.462Z,10.87
2022-07-26T23:59:03.030Z,11.13
